Time;durP1;ratioP1;P1;durP2;ratioP2;P2;SDS_P1;SDS_P2;PMS_P1;PMS_P2;Temp;Humidity;BMP_temperature;BMP_pressure;BME280_temperature;BME280_humidity;BME280_pressure;Samples;Min_cycle;Max_cycle;Signal;HPM_P1;HPM_P2
2023/05/15 00:01:24;;;;;;;;;;;;;;;13.51;84.67;100190.38;5056485;28;19916;-78
2023/05/15 00:04:13;;;;;;;;;;;;;;;13.53;84.91;100182.63;5055461;28;20379;-78
2023/05/15 00:07:05;;;;;;;;;;;;;;;13.74;84.48;100187.09;5046495;28;20292;-78
2023/05/15 00:09:57;;;;;;;;;;;;;;;13.92;83.20;100175.47;5055354;28;19916;-78
2023/05/15 00:12:49;;;;;;;;;;;;;;;13.96;82.01;100172.88;5053356;28;19912;-79
2023/05/15 00:15:41;;;;;;;;;;;;;;;13.79;82.38;100175.91;5051022;28;20315;-78
2023/05/15 00:18:32;;;;;;;;;;;;;;;13.54;83.59;100176.03;5042944;28;19913;-78
2023/05/15 00:21:24;;;;;;;;;;;;;;;13.41;84.45;100166.28;5032574;28;20387;-78
2023/05/15 00:24:11;;;;;;;;;;;;;;;13.31;85.25;100158.59;5035917;28;19912;-79
2023/05/15 00:27:03;;;;;;;;;;;;;;;13.25;85.52;100157.25;5049114;28;20482;-79
2023/05/15 00:29:55;;;;;;;;;;;;;;;13.23;86.04;100156.78;5048687;28;19916;-78
2023/05/15 00:32:47;;;;;;;;;;;;;;;13.18;86.64;100148.84;5055621;28;19912;-78
2023/05/15 00:35:40;;;;;;;;;;;;;;;13.13;87.11;100152.63;5036287;28;19917;-78
2023/05/15 00:38:32;;;;;;;;;;;;;;;13.19;87.02;100145.78;5039818;28;19912;-78
2023/05/15 00:41:25;;;;;;;;;;;;;;;13.13;87.27;100149.09;5034697;28;20295;-78
2023/05/15 00:44:18;;;;;;;;;;;;;;;13.15;87.65;100152.28;5017383;28;19913;-78
2023/05/15 00:47:11;;;;;;;;;;;;;;;13.13;87.64;100157.28;5044998;28;19912;-79
2023/05/15 00:50:03;;;;;;;;;;;;;;;13.17;87.42;100152.72;5050229;28;20308;-78
2023/05/15 00:52:56;;;;;;;;;;;;;;;13.18;87.12;100155.09;5059907;28;19913;-79
2023/05/15 00:55:51;;;;;;;;;;;;;;;13.19;87.14;100162.16;5040963;28;19913;-78
2023/05/15 00:58:43;;;;;;;;;;;;;;;13.13;87.46;100155.34;5035728;28;20376;-77
2023/05/15 01:01:35;;;;;;;;;;;;;;;13.17;87.38;100155.44;5049263;28;19912;-78
2023/05/15 01:04:25;;;;;;;;;;;;;;;13.15;87.47;100150.34;5042313;28;19917;-78
2023/05/15 01:07:16;;;;;;;;;;;;;;;13.20;87.64;100143.84;5054948;28;20373;-78
2023/05/15 01:10:09;;;;;;;;;;;;;;;13.37;85.84;100146.28;5055517;28;19921;-78
2023/05/15 01:13:02;;;;;;;;;;;;;;;13.35;85.65;100142.31;5051133;28;20376;-78
2023/05/15 01:15:55;;;;;;;;;;;;;;;13.31;85.52;100144.94;5045630;28;19912;-78
2023/05/15 01:18:47;;;;;;;;;;;;;;;13.14;87.19;100134.31;5034808;28;19913;-78
2023/05/15 01:21:40;;;;;;;;;;;;;;;13.05;88.12;100139.09;5043662;28;19913;-78
2023/05/15 01:24:48;;;;;;;;;;;;;;;13.06;88.77;100135.19;5038540;28;19913;-78
2023/05/15 01:27:44;;;;;;;;;;;;;;;13.02;88.55;100137.03;5025649;28;20380;-78
2023/05/15 01:30:37;;;;;;;;;;;;;;;13.06;88.58;100130.53;5059883;28;19914;-78
2023/05/15 01:33:35;;;;;;;;;;;;;;;13.08;88.66;100143.84;5037569;28;19912;-79
2023/05/15 01:36:31;;;;;;;;;;;;;;;13.18;87.83;100133.28;5035413;28;20388;-78
2023/05/15 01:39:29;;;;;;;;;;;;;;;13.30;86.75;100126.97;5045859;28;19917;-78
2023/05/15 01:42:21;;;;;;;;;;;;;;;13.23;85.25;100137.69;5040868;28;20307;-78
2023/05/15 01:45:13;;;;;;;;;;;;;;;13.27;86.29;100122.19;5034516;28;19913;-78
2023/05/15 01:48:08;;;;;;;;;;;;;;;13.21;85.07;100126.31;5023258;28;19925;-78
2023/05/15 01:51:02;;;;;;;;;;;;;;;13.03;86.05;100125.78;5044112;28;20286;-78
2023/05/15 01:53:54;;;;;;;;;;;;;;;13.05;87.22;100128.19;5043066;28;19912;-78
2023/05/15 01:56:46;;;;;;;;;;;;;;;13.22;85.81;100127.91;5054380;28;19913;-77
2023/05/15 01:59:37;;;;;;;;;;;;;;;13.54;83.98;100134.25;5058669;28;19913;-78
2023/05/15 02:02:30;;;;;;;;;;;;;;;13.40;83.29;100129.22;5049397;28;20376;-78
2023/05/15 02:05:22;;;;;;;;;;;;;;;13.40;81.80;100129.22;5123699;22;20501;-81
2023/05/15 02:08:15;;;;;;;;;;;;;;;13.54;80.12;100124.13;5089468;28;19916;-81
2023/05/15 02:11:07;;;;;;;;;;;;;;;13.60;78.96;100128.19;5098211;28;19912;-79
2023/05/15 02:14:02;;;;;;;;;;;;;;;13.31;80.28;100125.81;5082029;28;20002;-81
2023/05/15 02:16:51;;;;;;;;;;;;;;;13.31;80.47;100131.28;5103085;28;20390;-81
2023/05/15 02:19:43;;;;;;;;;;;;;;;13.47;80.16;100132.13;5100438;28;19919;-80
2023/05/15 02:22:35;;;;;;;;;;;;;;;13.16;81.08;100134.75;5079579;28;19912;-81
2023/05/15 02:25:32;;;;;;;;;;;;;;;12.95;82.13;100134.13;5083539;28;20332;-80
2023/05/15 02:28:35;;;;;;;;;;;;;;;12.76;83.79;100134.69;5082489;28;19917;-80
2023/05/15 02:31:30;;;;;;;;;;;;;;;12.87;83.46;100127.63;5071654;28;19912;-81
2023/05/15 02:34:27;;;;;;;;;;;;;;;12.66;83.12;100130.50;5091060;28;20294;-81
2023/05/15 02:37:22;;;;;;;;;;;;;;;12.52;84.96;100121.91;5090125;28;20294;-80
2023/05/15 02:40:15;;;;;;;;;;;;;;;12.69;84.23;100110.75;5079583;28;19913;-81
2023/05/15 02:43:06;;;;;;;;;;;;;;;12.54;84.21;100105.19;5094349;28;19916;-80
2023/05/15 02:45:58;;;;;;;;;;;;;;;12.71;84.70;100107.66;5089026;28;19912;-81
2023/05/15 02:48:50;;;;;;;;;;;;;;;13.07;83.12;100107.56;5092459;28;19916;-81
2023/05/15 02:51:42;;;;;;;;;;;;;;;13.30;80.34;100107.88;5095064;28;19912;-81
2023/05/15 02:54:34;;;;;;;;;;;;;;;13.44;79.06;100110.19;5089574;28;19916;-80
2023/05/15 02:57:23;;;;;;;;;;;;;;;13.30;79.76;100109.78;5050815;28;19913;-80
2023/05/15 03:00:15;;;;;;;;;;;;;;;13.39;78.58;100116.69;5078144;28;20398;-80
2023/05/15 03:03:07;;;;;;;;;;;;;;;12.84;81.62;100118.22;5077503;28;19913;-80
2023/05/15 03:05:59;;;;;;;;;;;;;;;12.70;82.47;100103.34;5074748;28;19913;-80
2023/05/15 03:08:51;;;;;;;;;;;;;;;12.67;83.71;100096.66;5078401;28;19921;-80
2023/05/15 03:11:43;;;;;;;;;;;;;;;12.64;82.53;100096.56;5078903;28;19912;-81
2023/05/15 03:14:35;;;;;;;;;;;;;;;12.46;82.61;100090.53;5071814;28;19912;-80
2023/05/15 03:17:27;;;;;;;;;;;;;;;12.23;83.44;100087.50;5067574;28;20291;-80
2023/05/15 03:20:19;;;;;;;;;;;;;;;12.23;83.41;100087.50;5081624;28;19912;-81
2023/05/15 03:23:08;;;;;;;;;;;;;;;12.22;83.34;100091.38;5069514;28;19916;-81
2023/05/15 03:26:00;;;;;;;;;;;;;;;12.08;83.76;100095.56;5069169;28;19912;-80
2023/05/15 03:28:52;;;;;;;;;;;;;;;12.20;84.07;100095.53;5081282;28;19916;-81
2023/05/15 03:31:44;;;;;;;;;;;;;;;12.04;84.13;100102.84;5065802;28;19912;-80
2023/05/15 03:34:36;;;;;;;;;;;;;;;12.26;84.27;100102.38;5072784;28;19920;-81
2023/05/15 03:37:28;;;;;;;;;;;;;;;12.66;81.11;100096.97;5090622;28;19912;-81
2023/05/15 03:40:20;;;;;;;;;;;;;;;13.02;79.35;100101.56;5075972;28;19913;-81
2023/05/15 03:43:09;;;;;;;;;;;;;;;13.13;77.23;100098.03;5054556;28;19916;-81
2023/05/15 03:46:01;;;;;;;;;;;;;;;13.37;76.11;100094.38;5070564;28;19912;-80
2023/05/15 03:48:53;;;;;;;;;;;;;;;13.49;74.56;100099.81;5077149;28;19916;-80
2023/05/15 03:51:45;;;;;;;;;;;;;;;13.64;73.92;100101.75;5064169;28;19912;-80
2023/05/15 03:54:37;;;;;;;;;;;;;;;13.63;73.92;100102.91;5059128;28;19913;-80
2023/05/15 03:57:26;;;;;;;;;;;;;;;13.58;73.67;100102.34;5070200;28;19912;-81
2023/05/15 04:00:18;;;;;;;;;;;;;;;13.58;73.64;100102.34;5090330;28;20286;-81
2023/05/15 04:03:08;;;;;;;;;;;;;;;13.52;73.12;100114.69;5098584;28;19912;-81
2023/05/15 04:06:00;;;;;;;;;;;;;;;13.57;73.12;100111.69;5098665;28;19912;-80
2023/05/15 04:08:52;;;;;;;;;;;;;;;13.15;75.07;100106.69;5080209;28;19920;-81
2023/05/15 04:11:44;;;;;;;;;;;;;;;13.01;75.52;100105.41;5092136;28;20286;-80
2023/05/15 04:14:37;;;;;;;;;;;;;;;13.34;73.73;100102.50;5096072;28;20187;-80
2023/05/15 04:17:29;;;;;;;;;;;;;;;13.42;74.84;100102.31;5079540;28;19912;-82
2023/05/15 04:20:21;;;;;;;;;;;;;;;13.56;74.27;100099.97;5080933;28;19913;-81
2023/05/15 04:23:13;;;;;;;;;;;;;;;13.73;73.17;100101.59;5083865;28;19912;-80
2023/05/15 04:26:06;;;;;;;;;;;;;;;13.68;73.03;100105.38;5081044;28;19916;-80
2023/05/15 04:28:55;;;;;;;;;;;;;;;13.79;72.46;100102.13;5087203;28;19917;-80
2023/05/15 04:31:47;;;;;;;;;;;;;;;13.79;72.53;100110.31;5098820;28;19912;-80
2023/05/15 04:34:37;;;;;;;;;;;;;;;13.55;73.82;100114.78;5105254;28;19941;-80
2023/05/15 04:37:26;;;;;;;;;;;;;;;13.61;73.51;100120.81;5096574;28;19916;-80
2023/05/15 04:40:18;;;;;;;;;;;;;;;13.33;73.40;100118.06;5085688;28;19912;-80
2023/05/15 04:43:10;;;;;;;;;;;;;;;13.52;72.14;100123.66;5078695;28;19912;-80
2023/05/15 04:46:02;;;;;;;;;;;;;;;12.82;77.72;100127.88;5105929;28;19912;-80
2023/05/15 04:48:54;;;;;;;;;;;;;;;12.92;78.24;100121.94;5087515;28;19917;-80
2023/05/15 04:51:46;;;;;;;;;;;;;;;13.10;78.59;100126.00;5087489;28;19912;-80
2023/05/15 04:54:38;;;;;;;;;;;;;;;13.30;78.08;100126.19;5088277;28;19913;-80
2023/05/15 04:57:30;;;;;;;;;;;;;;;13.02;78.72;100129.66;5082858;28;19913;-80
2023/05/15 05:00:22;;;;;;;;;;;;;;;12.76;81.45;100121.84;5083226;28;19915;-80
2023/05/15 05:03:14;;;;;;;;;;;;;;;12.92;82.50;100135.59;5086436;28;19912;-80
2023/05/15 05:06:06;;;;;;;;;;;;;;;12.92;81.89;100121.16;5087353;28;19913;-81
2023/05/15 05:08:59;;;;;;;;;;;;;;;12.85;83.59;100127.97;5091408;28;19917;-80
2023/05/15 05:11:51;;;;;;;;;;;;;;;12.92;83.51;100132.06;5092433;28;20295;-81
2023/05/15 05:14:43;;;;;;;;;;;;;;;12.82;84.27;100125.94;5066068;28;19912;-81
2023/05/15 05:17:35;;;;;;;;;;;;;;;12.80;84.51;100139.13;5072778;28;19921;-80
2023/05/15 05:20:25;;;;;;;;;;;;;;;13.13;83.98;100138.19;5082193;28;19912;-81
2023/05/15 05:23:16;;;;;;;;;;;;;;;13.19;82.91;100134.06;5098222;28;19912;-80
2023/05/15 05:26:09;;;;;;;;;;;;;;;13.27;83.00;100138.56;5109067;28;19912;-81
2023/05/15 05:29:01;;;;;;;;;;;;;;;13.12;84.38;100128.38;5094923;28;20318;-80
2023/05/15 05:31:53;;;;;;;;;;;;;;;12.91;85.63;100133.19;5104746;28;19912;-80
2023/05/15 05:34:45;;;;;;;;;;;;;;;12.88;86.52;100139.34;5109702;28;19912;-80
2023/05/15 05:37:37;;;;;;;;;;;;;;;12.85;86.07;100141.63;5097718;28;19913;-80
2023/05/15 05:40:27;;;;;;;;;;;;;;;12.94;85.94;100133.31;5083855;28;20291;-81
2023/05/15 05:43:19;;;;;;;;;;;;;;;12.98;86.52;100138.88;5108356;28;19912;-81
2023/05/15 05:46:09;;;;;;;;;;;;;;;13.18;85.87;100140.66;5106044;28;19912;-81
2023/05/15 05:48:58;;;;;;;;;;;;;;;13.15;85.95;100135.91;5109428;28;19916;-81
2023/05/15 05:51:47;;;;;;;;;;;;;;;13.30;85.79;100132.44;5094913;28;19912;-81
2023/05/15 05:54:39;;;;;;;;;;;;;;;13.54;84.85;100135.06;5099047;28;19912;-81
2023/05/15 05:57:31;;;;;;;;;;;;;;;13.51;84.51;100135.75;5105344;28;19912;-81
2023/05/15 06:00:18;;;;;;;;;;;;;;;13.50;83.57;100128.72;5095007;28;19913;-81
2023/05/15 06:03:10;;;;;;;;;;;;;;;13.36;84.38;100125.56;5105267;28;20278;-81
2023/05/15 06:06:02;;;;;;;;;;;;;;;13.66;84.09;100126.00;5104968;28;19916;-81
2023/05/15 06:08:54;;;;;;;;;;;;;;;13.78;83.23;100128.66;5101714;28;19916;-81
2023/05/15 06:11:44;;;;;;;;;;;;;;;13.49;82.93;100121.66;5084607;28;19913;-80
2023/05/15 06:14:36;;;;;;;;;;;;;;;13.76;84.27;100116.50;5084461;28;19912;-82
2023/05/15 06:17:28;;;;;;;;;;;;;;;13.91;81.54;100118.47;5084429;28;19912;-83
2023/05/15 06:20:18;;;;;;;;;;;;;;;14.13;79.99;100118.63;5104580;28;19912;-82
2023/05/15 06:23:10;;;;;;;;;;;;;;;14.18;79.80;100120.28;5101392;28;19912;-82
2023/05/15 06:26:02;;;;;;;;;;;;;;;14.27;79.35;100120.94;5089481;28;19915;-83
2023/05/15 06:28:54;;;;;;;;;;;;;;;14.11;79.34;100118.19;5088151;28;19917;-82
2023/05/15 06:31:43;;;;;;;;;;;;;;;13.91;81.27;100121.97;5059592;28;19913;-82
2023/05/15 06:34:35;;;;;;;;;;;;;;;13.83;82.41;100122.94;5085796;28;19917;-81
2023/05/15 06:37:27;;;;;;;;;;;;;;;13.79;82.86;100124.00;5085747;28;19912;-81
2023/05/15 06:40:18;;;;;;;;;;;;;;;14.01;82.19;100120.66;5086170;28;19912;-81
2023/05/15 06:43:09;;;;;;;;;;;;;;;14.20;80.36;100119.94;5093961;28;19919;-82
2023/05/15 06:46:01;;;;;;;;;;;;;;;14.31;80.90;100116.31;5077408;28;19917;-81
2023/05/15 06:48:53;;;;;;;;;;;;;;;14.68;78.16;100116.03;5095559;28;19916;-82
2023/05/15 06:51:45;;;;;;;;;;;;;;;14.82;76.77;100113.59;5100333;28;20306;-81
2023/05/15 06:54:37;;;;;;;;;;;;;;;14.79;75.98;100108.81;5097334;28;19912;-82
2023/05/15 06:57:29;;;;;;;;;;;;;;;14.74;76.48;100114.59;5062992;28;19912;-82
2023/05/15 07:00:21;;;;;;;;;;;;;;;14.42;77.58;100114.69;5063409;28;19913;-82
2023/05/15 07:03:13;;;;;;;;;;;;;;;14.32;79.87;100115.19;5059137;28;20307;-82
2023/05/15 07:06:04;;;;;;;;;;;;;;;14.31;80.78;100124.53;5086381;28;20371;-82
2023/05/15 07:08:56;;;;;;;;;;;;;;;14.37;79.77;100125.88;5083846;28;19917;-82
2023/05/15 07:11:46;;;;;;;;;;;;;;;14.37;79.02;100123.16;5084482;28;19912;-83
2023/05/15 07:14:35;;;;;;;;;;;;;;;14.29;79.50;100121.34;5068983;28;19913;-82
2023/05/15 07:17:27;;;;;;;;;;;;;;;14.21;79.66;100121.53;5067422;28;19920;-82
2023/05/15 07:20:17;;;;;;;;;;;;;;;14.17;80.59;100107.00;5090301;28;19912;-82
2023/05/15 07:23:09;;;;;;;;;;;;;;;14.21;80.66;100108.66;5083674;28;19912;-82
2023/05/15 07:26:01;;;;;;;;;;;;;;;14.37;80.48;100104.00;5077095;28;19912;-82
2023/05/15 07:28:50;;;;;;;;;;;;;;;14.43;79.84;100099.03;5078568;28;19920;-81
2023/05/15 07:31:43;;;;;;;;;;;;;;;14.40;79.02;100105.22;5078908;28;19916;-82
2023/05/15 07:34:35;;;;;;;;;;;;;;;14.42;78.93;100114.69;5082707;28;19912;-83
2023/05/15 07:37:24;;;;;;;;;;;;;;;14.98;76.56;100106.13;5080903;28;19913;-77
2023/05/15 07:40:14;;;;;;;;;;;;;;;14.91;77.84;100103.22;5076751;28;19916;-79
2023/05/15 07:43:04;;;;;;;;;;;;;;;14.84;75.96;100111.28;5088621;28;19919;-77
2023/05/15 07:45:53;;;;;;;;;;;;;;;14.95;76.36;100110.38;5076057;28;20383;-78
2023/05/15 07:48:45;;;;;;;;;;;;;;;15.62;74.82;100110.94;5075125;28;19913;-79
2023/05/15 07:51:37;;;;;;;;;;;;;;;15.32;74.73;100108.00;5083639;28;19911;-81
2023/05/15 07:54:28;;;;;;;;;;;;;;;15.75;74.41;100115.09;5084702;28;19916;-80
2023/05/15 07:57:18;;;;;;;;;;;;;;;16.02;72.84;100118.69;5099461;28;19912;-79
2023/05/15 08:00:12;;;;;;;;;;;;;;;15.96;72.87;100114.66;5093930;28;19916;-79
2023/05/15 08:03:01;;;;;;;;;;;;;;;16.20;72.38;100119.78;5081659;28;19912;-79
2023/05/15 08:05:51;;;;;;;;;;;;;;;15.86;74.62;100123.50;5093356;28;19912;-77
2023/05/15 08:08:43;;;;;;;;;;;;;;;16.68;70.33;100111.91;5097655;28;19915;-78
2023/05/15 08:11:35;;;;;;;;;;;;;;;16.48;70.76;100113.16;5078178;28;19912;-78
2023/05/15 08:14:27;;;;;;;;;;;;;;;16.82;69.41;100101.13;5068675;28;19920;-78
2023/05/15 08:17:19;;;;;;;;;;;;;;;17.02;70.56;100104.50;5090525;28;20371;-79
2023/05/15 08:20:11;;;;;;;;;;;;;;;16.73;69.71;100113.53;5096741;28;20183;-78
2023/05/15 08:23:03;;;;;;;;;;;;;;;17.31;68.03;100103.72;5100548;28;19916;-78
2023/05/15 08:25:55;;;;;;;;;;;;;;;17.92;66.43;100103.19;5065587;28;19920;-78
2023/05/15 08:28:47;;;;;;;;;;;;;;;18.21;63.68;100104.22;5078304;28;19912;-78
2023/05/15 08:31:39;;;;;;;;;;;;;;;18.80;62.32;100092.03;5077398;28;19911;-79
2023/05/15 08:34:31;;;;;;;;;;;;;;;18.10;63.99;100097.84;5076268;28;19911;-79
2023/05/15 08:37:23;;;;;;;;;;;;;;;18.20;66.55;100088.09;5072624;28;19916;-79
2023/05/15 08:40:15;;;;;;;;;;;;;;;18.05;64.25;100089.94;5082087;28;19912;-79
2023/05/15 08:43:09;;;;;;;;;;;;;;;19.25;60.28;100083.59;5080350;28;20291;-79
2023/05/15 08:45:59;;;;;;;;;;;;;;;20.22;57.65;100095.16;5074657;28;19913;-80
2023/05/15 08:48:52;;;;;;;;;;;;;;;19.41;57.49;100086.75;5075357;28;19916;-79
2023/05/15 08:51:44;;;;;;;;;;;;;;;19.27;58.97;100098.53;5061620;28;20376;-79
2023/05/15 08:54:34;;;;;;;;;;;;;;;20.11;54.75;100102.69;5059638;28;20292;-79
2023/05/15 08:57:26;;;;;;;;;;;;;;;19.72;58.04;100107.34;5073072;28;19912;-79
2023/05/15 09:00:18;;;;;;;;;;;;;;;20.62;55.51;100118.06;5092836;28;19911;-80
2023/05/15 09:03:14;;;;;;;;;;;;;;;19.79;57.64;100123.94;5099370;28;19911;-78
2023/05/15 09:06:07;;;;;;;;;;;;;;;19.54;56.98;100123.88;5096605;28;20363;-78
2023/05/15 09:08:59;;;;;;;;;;;;;;;19.45;59.48;100138.03;5081179;28;19912;-80
2023/05/15 09:11:51;;;;;;;;;;;;;;;19.60;58.24;100133.34;5093989;28;20290;-79
2023/05/15 09:14:43;;;;;;;;;;;;;;;20.53;53.88;100140.53;5106262;28;19912;-80
2023/05/15 09:17:33;;;;;;;;;;;;;;;19.57;55.97;100128.59;5098138;28;19912;-79
2023/05/15 09:20:27;;;;;;;;;;;;;;;23.06;48.38;100126.78;5081423;28;19912;-80
2023/05/15 09:23:26;;;;;;;;;;;;;;;21.69;48.97;100136.63;5083637;28;19912;-78
2023/05/15 09:26:18;;;;;;;;;;;;;;;25.59;40.87;100152.84;5081047;28;19912;-80
2023/05/15 09:29:10;;;;;;;;;;;;;;;23.33;45.23;100138.72;5076805;28;19912;-80
2023/05/15 09:32:06;;;;;;;;;;;;;;;21.57;49.26;100133.53;5089059;28;20131;-79
2023/05/15 09:34:58;;;;;;;;;;;;;;;20.12;53.02;100137.38;5100846;28;19911;-80
2023/05/15 09:37:58;;;;;;;;;;;;;;;25.01;41.92;100142.06;5099174;28;20322;-79
2023/05/15 09:40:50;;;;;;;;;;;;;;;25.44;40.29;100142.00;5085585;28;19912;-80
2023/05/15 09:43:42;;;;;;;;;;;;;;;26.44;36.56;100134.91;5083380;28;19912;-80
2023/05/15 09:46:35;;;;;;;;;;;;;;;27.49;35.57;100144.41;5082016;28;19913;-80
2023/05/15 09:49:28;;;;;;;;;;;;;;;28.39;33.04;100146.00;5072512;28;19916;-80
2023/05/15 09:52:20;;;;;;;;;;;;;;;25.77;38.43;100147.66;5096022;28;19912;-80
2023/05/15 09:55:15;;;;;;;;;;;;;;;25.39;41.62;100148.06;5066949;28;20308;-80
2023/05/15 09:58:10;;;;;;;;;;;;;;;26.23;38.39;100144.59;5061194;28;19913;-79
2023/05/15 10:01:02;;;;;;;;;;;;;;;28.25;32.73;100136.06;5078936;28;20295;-80
2023/05/15 10:04:01;;;;;;;;;;;;;;;25.15;39.65;100146.56;5068754;28;19912;-79
2023/05/15 10:06:53;;;;;;;;;;;;;;;22.73;44.41;100142.19;5067141;28;19912;-79
2023/05/15 10:09:45;;;;;;;;;;;;;;;26.02;37.37;100152.66;5078593;28;19925;-79
2023/05/15 10:12:37;;;;;;;;;;;;;;;30.96;28.99;100162.50;5078230;28;19916;-80
2023/05/15 10:15:29;;;;;;;;;;;;;;;30.70;28.85;100158.44;5088146;28;19912;-80
2023/05/15 10:18:23;;;;;;;;;;;;;;;32.73;25.99;100158.97;5081686;28;19912;-79
2023/05/15 10:21:17;;;;;;;;;;;;;;;27.00;33.91;100143.03;5074816;28;19920;-80
2023/05/15 10:24:09;;;;;;;;;;;;;;;24.13;41.11;100140.78;5077821;28;19912;-78
2023/05/15 10:26:58;;;;;;;;;;;;;;;27.31;34.45;100138.53;5070205;28;20298;-78
2023/05/15 10:29:48;;;;;;;;;;;;;;;31.15;28.66;100152.06;5084657;28;20293;-80
2023/05/15 10:32:40;;;;;;;;;;;;;;;25.12;38.14;100133.50;5088530;28;19912;-79
2023/05/15 10:35:30;;;;;;;;;;;;;;;24.08;40.79;100135.69;5057266;28;19913;-80
2023/05/15 10:38:24;;;;;;;;;;;;;;;21.51;48.75;100129.59;5061027;28;19916;-78
2023/05/15 10:41:14;;;;;;;;;;;;;;;27.82;35.69;100133.84;5076169;28;19912;-80
2023/05/15 10:44:04;;;;;;;;;;;;;;;25.71;38.14;100135.47;5088898;28;19911;-80
2023/05/15 10:46:57;;;;;;;;;;;;;;;28.18;33.70;100129.94;5098160;28;20014;-79
2023/05/15 10:49:46;;;;;;;;;;;;;;;27.57;34.39;100134.59;5084809;28;20449;-80
2023/05/15 10:52:41;;;;;;;;;;;;;;;30.71;28.74;100137.53;5078627;28;19912;-80
2023/05/15 10:55:31;;;;;;;;;;;;;;;23.98;39.52;100133.88;5087883;28;20374;-79
2023/05/15 10:58:24;;;;;;;;;;;;;;;28.84;32.95;100129.66;5098191;28;20282;-78
2023/05/15 11:01:24;;;;;;;;;;;;;;;31.91;28.02;100125.63;5092947;28;19912;-79
2023/05/15 11:04:19;;;;;;;;;;;;;;;38.20;19.32;100128.88;5090103;28;20378;-79
2023/05/15 11:07:16;;;;;;;;;;;;;;;38.98;18.92;100117.19;5090746;28;19912;-80
2023/05/15 11:10:23;;;;;;;;;;;;;;;42.18;15.55;100107.16;5098965;28;19916;-81
2023/05/15 11:13:10;;;;;;;;;;;;;;;40.60;17.19;100086.63;5073517;28;19920;-81
2023/05/15 11:16:02;;;;;;;;;;;;;;;37.88;19.39;100074.44;5086199;28;19912;-79
2023/05/15 11:18:52;;;;;;;;;;;;;;;33.30;24.31;100062.97;5093399;28;19913;-80
2023/05/15 11:21:46;;;;;;;;;;;;;;;33.61;23.83;100068.06;5060418;28;19912;-79
2023/05/15 11:24:50;;;;;;;;;;;;;;;29.02;29.97;100055.41;5058418;28;19912;-79
2023/05/15 11:27:45;;;;;;;;;;;;;;;27.73;32.55;100055.50;5076754;28;20383;-79
2023/05/15 11:30:39;;;;;;;;;;;;;;;25.58;37.88;100045.44;5087961;28;19916;-79
2023/05/15 11:33:31;;;;;;;;;;;;;;;24.25;40.46;100060.44;5097699;28;19912;-79
2023/05/15 11:36:24;;;;;;;;;;;;;;;22.93;43.52;100051.66;5092149;28;19916;-79
2023/05/15 11:39:14;;;;;;;;;;;;;;;24.96;38.79;100053.53;5090875;28;20386;-77
2023/05/15 11:42:12;;;;;;;;;;;;;;;26.30;36.17;100057.22;5098200;28;19912;-79
2023/05/15 11:45:05;;;;;;;;;;;;;;;25.07;38.68;100045.75;5079980;28;19912;-79
2023/05/15 11:47:57;;;;;;;;;;;;;;;24.18;41.80;100048.63;5069963;28;19916;-78
2023/05/15 11:50:49;;;;;;;;;;;;;;;27.65;36.34;100056.94;5085256;28;19920;-80
2023/05/15 11:53:40;;;;;;;;;;;;;;;27.59;33.37;100053.13;5060621;28;20165;-80
2023/05/15 11:56:32;;;;;;;;;;;;;;;27.22;34.14;100061.03;5057941;28;19912;-79
2023/05/15 11:59:27;;;;;;;;;;;;;;;25.97;36.73;100050.84;5071888;28;19912;-80
2023/05/15 12:02:17;;;;;;;;;;;;;;;28.89;30.39;100050.69;5090313;28;19912;-78
2023/05/15 12:05:12;;;;;;;;;;;;;;;26.77;33.35;100051.94;5097217;28;19920;-79
2023/05/15 12:08:02;;;;;;;;;;;;;;;27.64;31.11;100050.56;5068078;28;19913;-79
2023/05/15 12:10:54;;;;;;;;;;;;;;;29.49;29.35;100052.44;5061491;28;20303;-78
2023/05/15 12:13:43;;;;;;;;;;;;;;;29.96;29.42;100052.16;5071914;28;20295;-80
2023/05/15 12:16:33;;;;;;;;;;;;;;;27.44;33.62;100036.00;5059519;28;19912;-80
2023/05/15 12:19:28;;;;;;;;;;;;;;;28.17;32.99;100033.28;5072938;28;20287;-79
2023/05/15 12:22:17;;;;;;;;;;;;;;;27.55;34.12;100038.50;5086768;28;19912;-79
2023/05/15 12:25:10;;;;;;;;;;;;;;;28.16;32.91;100023.31;5093007;28;19913;-80
2023/05/15 12:28:03;;;;;;;;;;;;;;;29.13;31.83;100025.00;5076263;28;19912;-81
2023/05/15 12:30:55;;;;;;;;;;;;;;;29.73;29.68;100028.22;5069881;28;19916;-80
2023/05/15 12:33:48;;;;;;;;;;;;;;;28.33;33.78;100024.75;5089956;28;19912;-80
2023/05/15 12:36:42;;;;;;;;;;;;;;;27.32;36.38;100016.47;5079467;28;19912;-80
2023/05/15 12:39:31;;;;;;;;;;;;;;;26.74;36.16;100010.97;5082474;28;19916;-79
2023/05/15 12:42:18;;;;;;;;;;;;;;;29.87;30.98;100012.84;5057574;28;19943;-79
2023/05/15 12:45:14;;;;;;;;;;;;;;;29.14;31.26;100013.34;5061835;28;19920;-80
2023/05/15 12:48:06;;;;;;;;;;;;;;;26.97;34.55;100007.16;5065080;28;19912;-78
2023/05/15 12:51:05;;;;;;;;;;;;;;;27.82;33.33;99999.69;5087481;28;19916;-80
2023/05/15 12:53:58;;;;;;;;;;;;;;;26.10;36.13;100009.94;5093824;28;19912;-79
2023/05/15 12:56:49;;;;;;;;;;;;;;;26.74;35.32;100006.19;5080459;28;19912;-79
2023/05/15 12:59:41;;;;;;;;;;;;;;;28.56;32.62;100010.31;5075272;28;20364;-79
2023/05/15 13:02:33;;;;;;;;;;;;;;;25.82;35.45;100002.28;5077814;28;19920;-79
2023/05/15 13:05:26;;;;;;;;;;;;;;;25.19;37.20;100002.56;5072666;28;19912;-79
2023/05/15 13:08:18;;;;;;;;;;;;;;;27.47;33.84;100003.63;5086473;28;19925;-80
2023/05/15 13:11:12;;;;;;;;;;;;;;;27.92;31.69;100011.75;5082386;28;19915;-80
2023/05/15 13:14:09;;;;;;;;;;;;;;;26.89;33.73;99995.41;5099357;28;19912;-81
2023/05/15 13:17:02;;;;;;;;;;;;;;;27.61;33.57;99989.22;5099972;28;19912;-80
2023/05/15 13:19:52;;;;;;;;;;;;;;;27.14;33.97;99984.28;5083306;28;19912;-79
2023/05/15 13:22:44;;;;;;;;;;;;;;;25.13;36.17;99984.81;5087753;28;19916;-80
2023/05/15 13:25:34;;;;;;;;;;;;;;;23.96;39.25;99987.09;5082134;28;20314;-79
2023/05/15 13:28:26;;;;;;;;;;;;;;;25.02;38.38;99967.56;5079491;28;19912;-79
2023/05/15 13:31:16;;;;;;;;;;;;;;;24.95;34.58;99976.84;5080697;28;20388;-79
2023/05/15 13:34:08;;;;;;;;;;;;;;;24.14;38.24;99975.66;5091610;28;19912;-79
2023/05/15 13:36:57;;;;;;;;;;;;;;;24.97;37.39;99976.44;5099350;28;19912;-80
2023/05/15 13:39:44;;;;;;;;;;;;;;;24.02;38.00;99976.28;5100567;28;19912;-79
2023/05/15 13:42:34;;;;;;;;;;;;;;;24.00;37.96;99965.59;5082479;28;19912;-78
2023/05/15 13:45:25;;;;;;;;;;;;;;;23.43;39.19;99976.84;5082298;28;19912;-79
2023/05/15 13:48:17;;;;;;;;;;;;;;;23.82;40.04;99977.00;5082679;28;19912;-79
2023/05/15 13:51:09;;;;;;;;;;;;;;;22.85;41.42;99970.56;5072660;28;19916;-79
2023/05/15 13:54:01;;;;;;;;;;;;;;;22.69;41.08;99961.22;5088002;28;19912;-79
2023/05/15 13:56:53;;;;;;;;;;;;;;;23.10;40.33;99959.13;5086310;28;19916;-80
2023/05/15 13:59:43;;;;;;;;;;;;;;;22.32;42.98;99956.53;5064459;28;19913;-79
2023/05/15 14:02:35;;;;;;;;;;;;;;;21.70;43.63;99946.44;5075665;28;19912;-79
2023/05/15 14:05:27;;;;;;;;;;;;;;;21.70;45.96;99946.44;5089423;22;20316;-80
2023/05/15 14:08:19;;;;;;;;;;;;;;;21.90;45.42;99958.50;5062020;28;20478;-81
2023/05/15 14:11:09;;;;;;;;;;;;;;;21.74;44.09;99950.75;5074898;28;19916;-78
2023/05/15 14:14:01;;;;;;;;;;;;;;;21.88;45.87;99951.81;5075179;28;20376;-79
2023/05/15 14:16:53;;;;;;;;;;;;;;;21.63;44.40;99944.53;5072595;28;19912;-78
2023/05/15 14:19:42;;;;;;;;;;;;;;;21.56;45.13;99950.13;5074070;28;19912;-78
2023/05/15 14:22:34;;;;;;;;;;;;;;;21.88;43.00;99946.28;5072000;28;19912;-77
2023/05/15 14:25:24;;;;;;;;;;;;;;;22.01;43.54;99945.38;5076213;28;19912;-80
2023/05/15 14:28:16;;;;;;;;;;;;;;;22.02;43.37;99944.19;5073660;28;19920;-80
2023/05/15 14:31:08;;;;;;;;;;;;;;;21.85;42.36;99945.09;5065362;28;19917;-79
2023/05/15 14:34:00;;;;;;;;;;;;;;;22.03;44.00;99954.06;5058343;28;20308;-77
2023/05/15 14:36:52;;;;;;;;;;;;;;;22.03;44.00;99953.28;5069182;28;19912;-79
2023/05/15 14:39:43;;;;;;;;;;;;;;;21.81;44.08;99957.41;5067312;28;19916;-80
2023/05/15 14:42:35;;;;;;;;;;;;;;;22.01;43.54;99950.91;5074341;28;19912;-79
2023/05/15 14:45:27;;;;;;;;;;;;;;;21.96;44.08;99953.34;5077851;28;19916;-79